Tiempo atmosférico en la estación meteorológica de Valmadrid, Zaragoza (535 m.)



Fecha
DESCASC
Temp. máxima en grados centígrados (hora)
DESCASC
Temp. mínima en grados centígrados (hora)
DESCASC
Temp. media en grados centígrados
DESCASC
Racha de viento máxima en m/sg (hora)
DESCASC
Velocidad máxima media en intervalos de 10 minutos(hora)
DESCASC
Precipitaciones diarias en mm
DESCASC
Precipitaciones de 00:00 a 06:00 en mm
DESCASC
Precipitaciones de 06:00 a 12:00 en mm
DESCASC
Precipitaciones de 12:00 a 18:00 en mm
DESCASC
Precipitaciones de 18:00 a 24:00 en mm
DESCASC
13-10-2019 26.8 (16:20) 13.4 (03:10) 20.1 10.28 (18:40) 5.28 (18:40) 0 0 0 0 0
12-10-2019 27 (16:00) 13.8 (08:20) 20.4 10 (17:20) 5 (17:20) 0 0 0 0 0
10-10-2019 22.8 (17:10) 12.2 (00:00) 17.5 11.67 (01:50) 9.17 (01:50) 0 0 0 0 0
09-10-2019 21.8 (14:10) 12.3 (00:00) 17 12.22 (08:20) 8.06 (15:00) 0 0 0 0 0
08-10-2019 28.2 (15:40) 15.3 (00:00) 21.8 13.89 (00:10) 10.28 (01:10) 0 0 0 0 0
07-10-2019 23.8 (16:00) 12.4 (00:00) 18.1 18.33 (12:20) 12.5 (20:00) 0 0 0 0 0
06-10-2019 22.3 (15:00) 13.1 (00:00) 17.7 17.22 (10:10) 11.94 (10:40) 0 0 0 0 0
05-10-2019 26.1 (16:20) 13.2 (08:00) 19.7 11.11 (07:40) 6.67 (02:20) 0 0 0 0 0
04-10-2019 25.5 (16:00) 15.8 (00:00) 20.7 15.83 (02:50) 10.83 (02:50) 0 0 0 0 0
03-10-2019 25 (16:50) 12 (00:00) 18.5 14.17 (23:30) 10.56 (23:30) 0 0 0 0 0
02-10-2019 21 (15:40) 13.2 (00:00) 17.1 18.89 (18:10) 13.89 (22:00) 0 0 0 0 0
01-10-2019 28.7 (13:30) 13.3 (00:00) 21 10.28 (11:30) 7.5 (11:30) 0 0 0 0 0
30-09-2019 30.2 (16:20) 17 (00:00) 23.6 -- (--) -- (--) 0 0 0 0 0
29-09-2019 32 (16:20) 12.1 (00:00) 22.1 8.89 (14:50) 5.28 (14:50) 0 0 0 0 0
28-09-2019 26.8 (16:20) 14.5 (00:00) 20.6 7.22 (03:10) 5.28 (03:00) 0 0 0 0 0
27-09-2019 30 (16:50) 13.4 (00:00) 21.7 8.89 (15:10) 5 (13:00) 0 0 0 0 0
26-09-2019 28.8 (16:10) 14.6 (00:00) 21.7 -- (--) -- (--) 0 0 0 0 0
25-09-2019 23.5 (15:50) 14.1 (00:00) 18.8 12.22 (13:50) 7.22 (15:40) 0 0 0 0 0
24-09-2019 29.1 (16:40) 15.3 (00:00) 22.2 15 (13:40) 10 (13:40) 0 0 0 0 0
23-09-2019 25.1 (17:40) 13.2 (00:00) 19.2 8.33 (17:20) 5.28 (17:20) 0 0 0 0 0
22-09-2019 24.4 (17:50) 14.8 (00:00) 19.6 13.61 (15:40) 9.72 (15:40) 0 0 0 0 0
21-09-2019 26.3 (17:40) 15 (00:00) 20.6 11.67 (04:10) 6.39 (04:10) 0 0 0 0 0
20-09-2019 27.7 (16:30) 14.9 (00:00) 21.3 15 (16:50) 8.33 (20:40) 0 0 0 0 0
19-09-2019 29 (17:40) 15.6 (00:00) 22.3 6.94 (23:30) 3.89 (22:50) 0 0 0 0 0
18-09-2019 27.4 (14:40) 15.9 (00:00) 21.6 11.39 (01:20) 8.06 (01:20) 0 0 0 0 0
17-09-2019 30.7 (16:40) 15.8 (00:00) 23.3 14.72 (23:20) 8.61 (23:10) 0 0 0 0 0

Gráficas

Temp. máximas Temp. mínimas Temp. medias Precipitaciones Rachas de viento máximas Velocidades máximas media en intervalos de 10 minutos

Datos horarios

Fecha y hora oficial Temperatura (ºC) Velocidad del viento (km/h) Dirección del viento Racha (km/h) Dirección de racha Precipitación (mm) Presión (hPa) Tendencia (hPa) Humedad (%)
2019-10-16 23:00:00 16.8 6 Sudoeste 17 Sur 0 -- -- 43
2019-10-16 22:00:00 15.3 6 Sudeste 15 Sudoeste 0 -- -- 46
2019-10-16 21:00:00 15 4 Sur 14 Sur 0 -- -- 47
2019-10-16 20:00:00 16.5 6 Sur 18 Este 0 -- -- 44
2019-10-16 19:00:00 19.3 12 Sudeste 19 Sudeste 0 -- -- 38
2019-10-16 18:00:00 21.6 10 Oeste 17 Oeste 0 -- -- 30
2019-10-16 17:00:00 22.1 15 Oeste 25 Oeste 0 -- -- 30
2019-10-16 16:00:00 22.3 10 Sudoeste 27 Oeste 0 -- -- 30
2019-10-16 15:00:00 20.4 10 Sudoeste 26 Oeste 0 -- -- 34
2019-10-16 14:00:00 19.9 14 Oeste 32 Oeste 0 -- -- 36
2019-10-16 13:00:00 18.1 16 Sudoeste 29 Sur 0 -- -- 40
2019-10-16 12:00:00 17.4 11 Sudoeste 32 Sur 0 -- -- 43
2019-10-16 11:00:00 15.9 16 Sudoeste 34 Sudoeste 0 -- -- 45
2019-10-16 10:00:00 14.1 12 Sudoeste 35 Sudoeste 0 -- -- 47
2019-10-16 09:00:00 12.8 18 Sudoeste 34 Sudoeste 0 -- -- 50
2019-10-16 08:00:00 11.8 12 Sudoeste 24 Sudoeste 0 -- -- 53
2019-10-16 07:00:00 11.9 14 Sudoeste 24 Sudoeste 0 -- -- 53
2019-10-16 06:00:00 12.5 13 Sudoeste 30 Sur 0 -- -- 51
2019-10-16 05:00:00 12.3 11 Sur 22 Sudoeste 0 -- -- 53
2019-10-16 04:00:00 12.3 13 Sudoeste 23 Sudoeste 0 -- -- 52
2019-10-16 03:00:00 11.9 9 Sudoeste 21 Sur 0 -- -- 53
2019-10-16 02:00:00 11 7 Sur 21 Sudoeste 0 -- -- 55
2019-10-16 01:00:00 12 11 Sur 21 Sudoeste 0 -- -- 51
2019-10-16 00:00:00 11.7 8 Sudoeste 18 Sur 0 -- -- 52
2019-10-15 23:00:00 12.5 9 Oeste 18 Sudoeste 0 -- -- 49
2019-10-15 22:00:00 13.3 10 Oeste 22 Sudoeste 0 -- -- 47
2019-10-15 21:00:00 13.7 15 Sudoeste 22 Sudoeste 0 -- -- 46
2019-10-15 20:00:00 12.8 8 Sudeste 18 Oeste 0 -- -- 46
2019-10-15 19:00:00 15.4 8 Oeste 33 Sudoeste 0 -- -- 40
2019-10-15 18:00:00 17.3 14 Oeste 31 Oeste 0 -- -- 35
2019-10-15 17:00:00 18 10 Oeste 29 Oeste 0 -- -- 35
2019-10-15 16:00:00 17.5 14 Oeste 27 Oeste 0 -- -- 36
2019-10-15 15:00:00 16.6 15 Oeste 37 Oeste 0 -- -- 38
2019-10-15 14:00:00 15.9 18 Oeste 36 Oeste 0 -- -- 40
2019-10-15 13:00:00 15.1 20 Oeste 36 Oeste 0 -- -- 44
2019-10-15 12:00:00 13.8 23 Oeste 44 Oeste 0 -- -- 47
2019-10-15 11:00:00 11.7 34 Oeste 53 Sudoeste 0 -- -- 53
2019-10-15 10:00:00 10.6 31 Oeste 46 Sudoeste 0 -- -- 57
2019-10-15 09:00:00 9.2 24 Oeste 33 Oeste 0 -- -- 64
2019-10-15 08:00:00 9 19 Oeste 35 Sudoeste 0 -- -- 66
2019-10-15 07:00:00 9.7 19 Sudoeste 41 Oeste 0 -- -- 61
2019-10-15 06:00:00 9.7 21 Oeste 42 Oeste 0 -- -- 64
2019-10-15 05:00:00 10 23 Oeste 52 Sudoeste 0 -- -- 63
2019-10-15 04:00:00 10.4 22 Oeste 44 Sudoeste 0 -- -- 61
2019-10-15 03:00:00 11 27 Oeste 47 Oeste 0 -- -- 62
2019-10-15 02:00:00 10.9 17 Oeste 30 Sudoeste 0 -- -- 68
2019-10-15 01:00:00 11.8 14 Oeste 37 Sudoeste 0 -- -- 62
2019-10-15 00:00:00 12.2 10 Sudoeste 30 Sudoeste 0 -- -- 64
2019-10-14 23:00:00 12.4 24 Oeste 49 Sudoeste 0 -- -- 64
2019-10-14 22:00:00 13.2 29 Sudoeste 58 Oeste 0 -- -- 57
2019-10-14 21:00:00 18.1 6 Sudoeste 21 Sudoeste 0 -- -- 42
2019-10-14 20:00:00 19 14 Sudoeste 36 Sudoeste 0 -- -- 51
2019-10-14 19:00:00 20.1 17 Sudoeste 33 Sudoeste 0 -- -- 52
2019-10-14 18:00:00 20.3 15 Sudoeste 44 Oeste 0 -- -- 54
2019-10-14 17:00:00 20.6 23 Sudoeste 54 Sudoeste 0 -- -- 57
2019-10-14 16:00:00 21 15 Sur 42 Este 0.2 -- -- 58
2019-10-14 15:00:00 22.6 31 Sudeste 46 Sudeste 0 -- -- 45
2019-10-14 14:00:00 22.5 24 Sudeste 54 Sur 0 -- -- 46
2019-10-14 13:00:00 18.9 22 Sudeste 64 Sudeste 0.4 -- -- 54
2019-10-14 12:00:00 20.4 11 Sur 30 Sur 0 -- -- 51
2019-10-14 11:00:00 16.8 8 Sur 28 Sudeste 0 -- -- 89
2019-10-14 10:00:00 16.3 13 Sudeste 30 Este 0 -- -- 93
2019-10-14 09:00:00 16 17 Sudeste 32 Este 0 -- -- 96
2019-10-14 08:00:00 15.8 14 Sudeste 37 Sudeste 0 -- -- 98
2019-10-14 07:00:00 15.9 23 Sudeste 34 Este 0 -- -- 97
2019-10-14 06:00:00 15.9 18 Este 37 Este 0 -- -- 97
2019-10-14 05:00:00 16 22 Este 40 Este 0 -- -- 96
2019-10-14 04:00:00 16.3 13 Sudeste 24 Este 0 -- -- 94
2019-10-14 03:00:00 16.5 6 Este 22 Este 0 -- -- 90
2019-10-14 02:00:00 15.7 0 Calma 20 Este 0 -- -- 90
2019-10-14 01:00:00 14.7 3 Sudeste 6 Sur 0 -- -- 88
2019-10-14 00:00:00 16.5 4 Sur 10 Sur 0 -- -- 85
2019-10-13 23:00:00 17.7 7 Sudoeste 12 Sur 0 -- -- 82
2019-10-13 22:00:00 19 3 Sudeste 19 Este 0 -- -- 78
2019-10-13 21:00:00 20.4 4 Sudeste 11 Sudeste 0 -- -- 73
2019-10-13 20:00:00 21.8 5 Norte 25 Este 0 -- -- 64
2019-10-13 19:00:00 23.9 14 Este 37 Este 0 -- -- 56
2019-10-13 18:00:00 26.3 9 Este 29 Este 0 -- -- 43
2019-10-13 17:00:00 26.8 14 Este 26 Este 0 -- -- 41
2019-10-13 16:00:00 26.7 12 Nordeste 28 Nordeste 0 -- -- 42
2019-10-13 15:00:00 25.7 11 Este 24 Este 0 -- -- 45
2019-10-13 14:00:00 24.6 14 Este 25 Este 0 -- -- 49
2019-10-13 13:00:00 23.2 9 Nordeste 17 Este 0 -- -- 55
2019-10-13 12:00:00 21 12 Este 21 Este 0 -- -- 66
2019-10-13 11:00:00 19.2 10 Sudeste 24 Este 0 -- -- 74
2019-10-13 10:00:00 17.7 5 Este 12 Este 0 -- -- 82
2019-10-13 09:00:00 15.3 6 Sudeste 15 Este 0 -- -- 94
2019-10-13 08:00:00 15.7 8 Sudeste 17 Este 0 -- -- 94
2019-10-13 07:00:00 16.1 11 Sudeste 15 Sudeste 0 -- -- 93
2019-10-13 06:00:00 16.3 6 Este 18 Este 0 -- -- 94
2019-10-13 05:00:00 16.7 11 Sudeste 18 Sudeste 0 -- -- 93
2019-10-13 04:00:00 16 6 Sur 12 Sudoeste 0 -- -- 95
2019-10-13 03:00:00 13.8 4 Sur 8 Sudeste 0 -- -- 91
2019-10-13 02:00:00 14.8 3 Noroeste 8 Oeste 0 -- -- 92
2019-10-13 01:00:00 16.5 2 Oeste 10 Oeste 0 -- -- 88
2019-10-13 00:00:00 17.6 3 Sudeste 9 Sudeste 0 -- -- 81
2019-10-12 23:00:00 17.4 0 Calma 8 Oeste 0 -- -- 83
2019-10-12 22:00:00 18.2 2 Noroeste 9 Este 0 -- -- 79
2019-10-12 21:00:00 19.9 5 Este 16 Este 0 -- -- 72
2019-10-12 20:00:00 21.9 8 Este 27 Este 0 -- -- 65
2019-10-12 19:00:00 24.3 12 Este 32 Este 0 -- -- 53
2019-10-12 18:00:00 26.3 13 Nordeste 36 Este 0 -- -- 50
2019-10-12 17:00:00 26.7 18 Este 31 Este 0 -- -- 42
2019-10-12 16:00:00 27 10 Este 25 Nordeste 0 -- -- 38
2019-10-12 15:00:00 25.7 10 Este 22 Este 0 -- -- 39
2019-10-12 14:00:00 24.5 7 Este 22 Este 0 -- -- 50
2019-10-12 13:00:00 21.7 8 Este 21 Este 0 -- -- 63
2019-10-12 12:00:00 19.7 10 Este 19 Este 0 -- -- 77
2019-10-12 11:00:00 17.3 10 Este 18 Este 0 -- -- 90
2019-10-12 10:00:00 16.5 3 Nordeste 9 Este 0 -- -- 94
2019-10-12 09:00:00 14.6 3 Oeste 5 Oeste 0 -- -- 99
2019-10-12 08:00:00 13.9 3 Noroeste 13 Sudeste 0 -- -- 97
2019-10-12 07:00:00 15.3 3 Sudeste 9 Sudeste 0 -- -- 98
2019-10-12 06:00:00 15.3 4 Sudeste 16 Este 0 -- -- 96
2019-10-12 05:00:00 16.2 5 Sur 20 Este 0 -- -- 94
2019-10-12 04:00:00 15.7 4 Sur 8 Sudeste 0 -- -- 97
2019-10-12 03:00:00 15.7 3 Sudeste 7 Sudeste 0 -- -- 95
2019-10-12 02:00:00 16.3 3 Este 6 Sudeste 0 -- -- 96
2019-10-12 01:00:00 17.3 4 Sudeste 11 Sudeste 0 -- -- 91
2019-10-12 00:00:00 17.9 6 Sudeste 15 Sudeste 0 -- -- 89
2019-10-11 23:00:00 18.7 10 Este 19 Este 0 -- -- 84
2019-10-11 22:00:00 19.8 6 Sudeste 15 Sudeste 0 -- -- 77
2019-10-11 21:00:00 21.1 11 Sudeste 19 Este 0 -- -- 67
2019-10-11 20:00:00 20.6 2 Noroeste 13 Este 0 -- -- 60
2019-10-11 19:00:00 22.9 8 Este 23 Este 0 -- -- 53
2019-10-11 18:00:00 23.7 13 Este 25 Este 0 -- -- 50
2019-10-11 17:00:00 23.4 14 Este 26 Este 0 -- -- 51
2019-10-11 16:00:00 23.4 13 Este 24 Este 0 -- -- 51
2019-10-11 15:00:00 23.1 15 Sudeste 21 Este 0 -- -- 53
2019-10-11 14:00:00 22.3 9 Este 16 Este 0 -- -- 56
2019-10-11 13:00:00 20.3 9 Este 15 Sudeste 0 -- -- 62
2019-10-11 12:00:00 17.1 6 Este 13 Este 0 -- -- 76
2019-10-11 11:00:00 14.6 5 Sudeste 11 Este 0 -- -- 89
2019-10-11 10:00:00 13 3 Sudoeste 4 Sudoeste 0 -- -- 95
2019-10-11 09:00:00 12.1 0 Calma 6 Sudeste 0 -- -- 97
2019-10-11 08:00:00 12.2 4 Sudeste 8 Sudeste 0 -- -- 96
2019-10-11 07:00:00 11.8 3 Sudeste 6 Sur 0 -- -- 96
2019-10-11 06:00:00 12 3 Sur 9 Sur 0 -- -- 92
2019-10-11 05:00:00 11.8 2 Sudeste 7 Sudeste 0 -- -- 81
2019-10-11 04:00:00 11.8 0 Calma 12 Sudeste 0 -- -- 80
2019-10-11 03:00:00 12.2 8 Sudeste 10 Sudeste 0 -- -- 68
2019-10-11 02:00:00 12.9 4 Sur 9 Sudeste 0 -- -- 66
2019-10-11 01:00:00 12.7 3 Sudeste 7 Sur 0 -- -- 66
2019-10-11 00:00:00 13 5 Sudeste 10 Sudeste 0 -- -- 64
2019-10-10 23:00:00 13.2 4 Sudeste 9 Sudeste 0 -- -- 61
2019-10-10 22:00:00 14.4 3 Sudeste 10 Sudeste 0 -- -- 56
2019-10-10 21:00:00 15.2 4 Sudoeste 9 Sudeste 0 -- -- 53
2019-10-10 20:00:00 17.4 3 Este 15 Este 0 -- -- 47
2019-10-10 19:00:00 20 5 Este 12 Este 0 -- -- 40
2019-10-10 18:00:00 22.4 4 Norte 14 Norte 0 -- -- 35
2019-10-10 17:00:00 22.7 5 Nordeste 19 Nordeste 0 -- -- 36
2019-10-10 16:00:00 22.3 5 Nordeste 22 Norte 0 -- -- 36
2019-10-10 15:00:00 22.5 6 Noroeste 19 Sudoeste 0 -- -- 36
2019-10-10 14:00:00 19.7 6 Noroeste 19 Noroeste 0 -- -- 41
2019-10-10 13:00:00 19.3 11 Noroeste 21 Oeste 0 -- -- 42
2019-10-10 12:00:00 16.3 13 Oeste 21 Oeste 0 -- -- 49
2019-10-10 11:00:00 15 11 Noroeste 19 Noroeste 0 -- -- 54
2019-10-10 10:00:00 14.1 7 Noroeste 23 Oeste 0 -- -- 60
2019-10-10 09:00:00 13.2 5 Sudeste 23 Oeste 0 -- -- 63
2019-10-10 08:00:00 13 10 Oeste 17 Oeste 0 -- -- 62
2019-10-10 07:00:00 13.1 10 Oeste 17 Noroeste 0 -- -- 62
2019-10-10 06:00:00 12.8 8 Oeste 20 Oeste 0 -- -- 62
2019-10-10 05:00:00 13 6 Oeste 14 Sur 0 -- -- 62
2019-10-10 04:00:00 13.2 6 Norte 35 Oeste 0 -- -- 62
2019-10-10 03:00:00 13 16 Oeste 42 Oeste 0 -- -- 64
2019-10-10 02:00:00 12.8 28 Oeste 42 Sudoeste 0 -- -- 65
2019-10-10 01:00:00 12.7 22 Oeste 33 Oeste 0 -- -- 65
2019-10-10 00:00:00 12.3 12 Oeste 19 Oeste 0 -- -- 65
2019-10-09 23:00:00 13.5 13 Oeste 30 Noroeste 0 -- -- 61
2019-10-09 22:00:00 14.3 17 Oeste 32 Oeste 0 -- -- 59
2019-10-09 21:00:00 15.7 18 Noroeste 25 Noroeste 0 -- -- 55
2019-10-09 20:00:00 16.6 15 Oeste 38 Noroeste 0 -- -- 54
2019-10-09 19:00:00 18.5 22 Noroeste 33 Noroeste 0 -- -- 50
2019-10-09 18:00:00 20.4 26 Noroeste 37 Noroeste 0 -- -- 47
2019-10-09 17:00:00 21.7 22 Noroeste 39 Oeste 0 -- -- 46
2019-10-09 16:00:00 21.4 28 Noroeste 43 Noroeste 0 -- -- 48
2019-10-09 15:00:00 21.6 29 Noroeste 41 Oeste 0 -- -- 50
2019-10-09 14:00:00 21 26 Noroeste 39 Noroeste 0 -- -- 53
2019-10-09 13:00:00 20.6 23 Noroeste 37 Oeste 0 -- -- 56
2019-10-09 12:00:00 19.5 25 Noroeste 36 Oeste 0 -- -- 60
2019-10-09 11:00:00 18.8 22 Noroeste 30 Oeste 0 -- -- 64
2019-10-09 10:00:00 16.9 10 Oeste 24 Oeste 0 -- -- 72
2019-10-09 09:00:00 15.2 9 Noroeste 44 Oeste 0 -- -- 79
2019-10-09 08:00:00 14.7 25 Oeste 41 Noroeste 0 -- -- 82
2019-10-09 07:00:00 14.2 3 Sudoeste 13 Sudeste 0 -- -- 85
2019-10-09 06:00:00 14.1 7 Sudeste 18 Sudoeste 0 -- -- 82
2019-10-09 05:00:00 14.6 4 Sudeste 15 Norte 0 -- -- 75
2019-10-09 04:00:00 13.7 10 Sudeste 14 Sudeste 0 -- -- 69
2019-10-09 03:00:00 16.2 7 Sudeste 12 Sudeste 0 -- -- 59
2019-10-09 02:00:00 15.2 7 Sudeste 12 Sudeste 0 -- -- 61
2019-10-09 01:00:00 14.8 7 Sudeste 12 Sudeste 0 -- -- 58
2019-10-09 00:00:00 15.3 2 Este 13 Sudeste 0 -- -- 57
2019-10-08 23:00:00 16.5 6 Sudeste 14 Sudeste 0 -- -- 54
2019-10-08 22:00:00 18.7 6 Sur 12 Sudeste 0 -- -- 50
2019-10-08 21:00:00 19.7 4 Sudoeste 6 Sur 0 -- -- 48
2019-10-08 20:00:00 22.7 3 Sudeste 16 Sudeste 0 -- -- 41
2019-10-08 19:00:00 24.7 12 Este 17 Este 0 -- -- 36
2019-10-08 18:00:00 26.5 8 Este 19 Este 0 -- -- 31
2019-10-08 17:00:00 27.3 8 Este 16 Sudeste 0 -- -- 23
2019-10-08 16:00:00 27.4 10 Este 21 Este 0 -- -- 22
2019-10-08 15:00:00 27 9 Norte 18 Noroeste 0 -- -- 21
2019-10-08 14:00:00 27.1 6 Norte 16 Norte 0 -- -- 20
2019-10-08 13:00:00 26 7 Norte 17 Norte 0 -- -- 20
2019-10-08 12:00:00 24.6 9 Oeste 15 Sudoeste 0 -- -- 18
2019-10-08 11:00:00 22.9 6 Oeste 18 Oeste 0 -- -- 22
2019-10-08 10:00:00 20.9 5 Nordeste 12 Oeste 0 -- -- 28
2019-10-08 09:00:00 16.8 6 Sur 14 Noroeste 0 -- -- 34
2019-10-08 08:00:00 16.2 4 Este 12 Norte 0 -- -- 35
2019-10-08 07:00:00 16.9 4 Este 28 Oeste 0 -- -- 32
2019-10-08 06:00:00 17.1 23 Oeste 35 Oeste 0 -- -- 32
2019-10-08 05:00:00 17.7 23 Oeste 37 Oeste 0 -- -- 30
2019-10-08 04:00:00 18.4 28 Oeste 44 Oeste 0 -- -- 26
2019-10-08 03:00:00 17.6 16 Oeste 32 Oeste 0 -- -- 28
2019-10-08 02:00:00 18.3 28 Oeste 50 Noroeste 0 -- -- 27
2019-10-08 01:00:00 18.8 33 Oeste 50 Oeste 0 -- -- 26
2019-10-08 00:00:00 19.1 36 Oeste 51 Oeste 0 -- -- 27
2019-10-07 23:00:00 18.8 23 Oeste 45 Oeste 0 -- -- 29
2019-10-07 22:00:00 19.7 24 Oeste 54 Oeste 0 -- -- 27
2019-10-07 21:00:00 20.5 32 Oeste 59 Noroeste 0 -- -- 33
2019-10-07 20:00:00 21.7 45 Oeste 58 Oeste 0 -- -- 32
2019-10-07 19:00:00 22.6 36 Oeste 58 Noroeste 0 -- -- 32
2019-10-07 18:00:00 23.6 33 Oeste 52 Oeste 0 -- -- 32
2019-10-07 17:00:00 23.8 35 Oeste 59 Oeste 0 -- -- 32
2019-10-07 16:00:00 23.8 31 Oeste 59 Oeste 0 -- -- 28
2019-10-07 15:00:00 22.6 35 Oeste 55 Oeste 0 -- -- 29
2019-10-07 14:00:00 20.9 28 Noroeste 58 Noroeste 0 -- -- 31
2019-10-07 13:00:00 18.8 26 Oeste 66 Oeste 0 -- -- 38
2019-10-07 12:00:00 18.1 44 Oeste 64 Oeste 0 -- -- 42
2019-10-07 11:00:00 17.3 37 Oeste 59 Oeste 0 -- -- 46
2019-10-07 10:00:00 15.4 30 Oeste 60 Oeste 0 -- -- 55
2019-10-07 09:00:00 13.9 30 Oeste 55 Sudoeste 0 -- -- 61
2019-10-07 08:00:00 12.7 34 Oeste 49 Oeste 0 -- -- 68
2019-10-07 07:00:00 12.5 30 Sudoeste 43 Sudoeste 0 -- -- 71
2019-10-07 06:00:00 12.4 22 Oeste 47 Oeste 0 -- -- 71
2019-10-07 05:00:00 12.7 22 Oeste 36 Noroeste 0 -- -- 72
2019-10-07 04:00:00 13.1 24 Oeste 50 Oeste 0 -- -- 71
2019-10-07 03:00:00 13.7 34 Noroeste 52 Oeste 0 -- -- 67
2019-10-07 02:00:00 14 20 Noroeste 51 Noroeste 0 -- -- 68
2019-10-07 01:00:00 14.2 16 Oeste 49 Oeste 0 -- -- 70
2019-10-07 00:00:00 14.8 37 Oeste 57 Oeste 0 -- -- 69
2019-10-06 23:00:00 15 27 Oeste 52 Noroeste 0 -- -- 70
2019-10-06 22:00:00 15.7 39 Noroeste 59 Noroeste 0 -- -- 67
2019-10-06 21:00:00 17.1 38 Noroeste 51 Oeste 0 -- -- 62
2019-10-06 20:00:00 18.3 30 Noroeste 53 Noroeste 0 -- -- 57
2019-10-06 19:00:00 19.6 26 Noroeste 48 Noroeste 0 -- -- 55
2019-10-06 18:00:00 20.8 25 Noroeste 39 Noroeste 0 -- -- 54
2019-10-06 17:00:00 22.1 24 Noroeste 50 Noroeste 0 -- -- 49
2019-10-06 16:00:00 22.2 31 Noroeste 50 Noroeste 0 -- -- 49
2019-10-06 15:00:00 22.3 33 Noroeste 47 Oeste 0 -- -- 47
2019-10-06 14:00:00 21.7 27 Oeste 53 Oeste 0 -- -- 48
2019-10-06 13:00:00 20.8 28 Oeste 42 Oeste 0 -- -- 49
2019-10-06 12:00:00 18.6 20 Oeste 42 Oeste 0 -- -- 54
2019-10-06 11:00:00 16.5 34 Oeste 62 Oeste 0 -- -- 61
2019-10-06 10:00:00 15.4 28 Oeste 52 Oeste 0 -- -- 68
2019-10-06 09:00:00 14.1 9 Nordeste 37 Noroeste 0 -- -- 75
2019-10-06 08:00:00 13.3 15 Noroeste 32 Oeste 0 -- -- 79
2019-10-06 07:00:00 13.5 6 Nordeste 31 Noroeste 0 -- -- 81
2019-10-06 06:00:00 13.8 5 Norte 39 Oeste 0 -- -- 80
2019-10-06 05:00:00 14.4 9 Nordeste 25 Oeste 0 -- -- 75
2019-10-06 04:00:00 15.1 4 Nordeste 33 Noroeste 0 -- -- 70
2019-10-06 03:00:00 16 13 Noroeste 36 Oeste 0 -- -- 67
2019-10-06 02:00:00 17 24 Oeste 47 Oeste 0 -- -- 55
2019-10-06 01:00:00 17.7 15 Oeste 40 Noroeste 0 -- -- 56
2019-10-06 00:00:00 19.1 6 Norte 15 Nordeste 0 -- -- 52
2019-10-05 23:00:00 18.9 6 Sur 15 Oeste 0 -- -- 50
2019-10-05 22:00:00 18.6 8 Sudeste 13 Sudeste 0 -- -- 49
2019-10-05 21:00:00 19 5 Sudoeste 13 Sudeste 0 -- -- 46
2019-10-05 20:00:00 20.1 3 Noroeste 17 Oeste 0 -- -- 43
2019-10-05 19:00:00 23.2 10 Noroeste 21 Noroeste 0 -- -- 38
2019-10-05 18:00:00 25.1 15 Noroeste 27 Noroeste 0 -- -- 36
2019-10-05 17:00:00 25.3 22 Noroeste 36 Oeste 0 -- -- 36
2019-10-05 16:00:00 25.7 19 Noroeste 28 Noroeste 0 -- -- 39
2019-10-05 15:00:00 24.8 11 Oeste 25 Sudoeste 0 -- -- 42
2019-10-05 14:00:00 23.3 16 Oeste 27 Oeste 0 -- -- 46
2019-10-05 13:00:00 21.1 16 Oeste 26 Sudoeste 0 -- -- 54
2019-10-05 12:00:00 19.5 20 Oeste 29 Oeste 0 -- -- 59
2019-10-05 11:00:00 18 16 Oeste 26 Noroeste 0 -- -- 65
2019-10-05 10:00:00 15.8 13 Oeste 29 Noroeste 0 -- -- 74
2019-10-05 09:00:00 14.7 7 Noroeste 33 Oeste 0 -- -- 79
2019-10-05 08:00:00 13.2 23 Oeste 40 Oeste 0 -- -- 84
2019-10-05 07:00:00 13.6 6 Norte 34 Oeste 0 -- -- 81
2019-10-05 06:00:00 13.5 4 Nordeste 14 Este 0 -- -- 81
2019-10-05 05:00:00 14.2 9 Este 24 Sudoeste 0 -- -- 79
2019-10-05 04:00:00 14.1 10 Oeste 20 Oeste 0 -- -- 78
2019-10-05 03:00:00 15.3 14 Oeste 37 Oeste 0 -- -- 73
2019-10-05 02:00:00 15.6 23 Oeste 36 Oeste 0 -- -- 71
2019-10-05 01:00:00 15.7 12 Oeste 33 Oeste 0 -- -- 72
2019-10-05 00:00:00 17.2 23 Oeste 34 Oeste 0 -- -- 64
2019-10-04 23:00:00 17.6 21 Oeste 31 Oeste 0 -- -- 66
2019-10-04 22:00:00 18.9 19 Noroeste 32 Noroeste 0 -- -- 63
2019-10-04 21:00:00 18.9 6 Oeste 12 Oeste 0 -- -- 60
2019-10-04 20:00:00 19.9 7 Oeste 16 Noroeste 0 -- -- 55
2019-10-04 19:00:00 23.4 12 Noroeste 19 Noroeste 0 -- -- 46
2019-10-04 18:00:00 25.3 10 Noroeste 24 Noroeste 0 -- -- 41
2019-10-04 17:00:00 25 15 Noroeste 27 Oeste 0 -- -- 43
2019-10-04 16:00:00 25.5 17 Noroeste 27 Oeste 0 -- -- 43
2019-10-04 15:00:00 24.4 20 Noroeste 33 Oeste 0 -- -- 45
2019-10-04 14:00:00 24 22 Noroeste 43 Oeste 0 -- -- 49
2019-10-04 13:00:00 23.8 21 Noroeste 36 Noroeste 0 -- -- 47
2019-10-04 12:00:00 22 15 Oeste 28 Oeste 0 -- -- 51
2019-10-04 11:00:00 20.4 17 Oeste 27 Oeste 0 -- -- 47
2019-10-04 10:00:00 17.9 17 Oeste 27 Oeste 0 -- -- 49
2019-10-04 09:00:00 16 13 Oeste 21 Sudoeste 0 -- -- 56
2019-10-04 08:00:00 16.5 4 Oeste 13 Sur 0 -- -- 58
2019-10-04 07:00:00 16.8 4 Este 16 Oeste 0 -- -- 58
2019-10-04 06:00:00 16.8 6 Oeste 29 Oeste 0 -- -- 59
2019-10-04 05:00:00 16.4 18 Oeste 41 Sudoeste 0 -- -- 57
2019-10-04 04:00:00 16.2 22 Oeste 46 Noroeste 0 -- -- 55
2019-10-04 03:00:00 17.2 37 Oeste 57 Oeste 0 -- -- 56
2019-10-04 02:00:00 16.4 18 Oeste 39 Oeste 0 -- -- 48
2019-10-04 01:00:00 17.3 24 Oeste 43 Oeste 0 -- -- 41
2019-10-04 00:00:00 17.3 27 Oeste 51 Oeste 0 -- -- 42
2019-10-03 23:00:00 17.7 28 Oeste 41 Oeste 0 -- -- 44
2019-10-03 22:00:00 17.8 16 Oeste 27 Oeste 0 -- -- 45
2019-10-03 21:00:00 18.6 11 Oeste 20 Oeste 0 -- -- 44
2019-10-03 20:00:00 19.7 8 Oeste 22 Oeste 0 -- -- 40
2019-10-03 19:00:00 22.1 12 Noroeste 38 Noroeste 0 -- -- 36
2019-10-03 18:00:00 23.8 24 Noroeste 39 Noroeste 0 -- -- 31
2019-10-03 17:00:00 24.7 22 Noroeste 40 Oeste 0 -- -- 29
2019-10-03 16:00:00 24.4 26 Oeste 44 Oeste 0 -- -- 27
2019-10-03 15:00:00 23.5 30 Oeste 42 Oeste 0 -- -- 26
2019-10-03 14:00:00 21.9 24 Noroeste 36 Oeste 0 -- -- 33
2019-10-03 13:00:00 19.5 7 Noroeste 29 Oeste 0 -- -- 43
2019-10-03 12:00:00 17.3 8 Noroeste 29 Noroeste 0 -- -- 51
2019-10-03 11:00:00 15.1 14 Noroeste 29 Noroeste 0 -- -- 60
2019-10-03 10:00:00 14.2 10 Oeste 22 Noroeste 0 -- -- 64
2019-10-03 09:00:00 12.7 10 Oeste 26 Oeste 0 -- -- 69
2019-10-03 08:00:00 12.4 21 Oeste 35 Oeste 0 -- -- 71
2019-10-03 07:00:00 12.7 14 Oeste 29 Oeste 0 -- -- 70
2019-10-03 06:00:00 12.9 6 Oeste 34 Oeste 0 -- -- 70
2019-10-03 05:00:00 12.7 26 Noroeste 45 Oeste 0 -- -- 72
2019-10-03 04:00:00 13 15 Oeste 45 Oeste 0 -- -- 72
2019-10-03 03:00:00 12.9 9 Oeste 36 Noroeste 0 -- -- 73
2019-10-03 02:00:00 13.3 17 Oeste 35 Oeste 0 -- -- 73
2019-10-03 01:00:00 13.4 20 Oeste 49 Oeste 0 -- -- 71
2019-10-03 00:00:00 13.7 34 Oeste 59 Oeste 0 -- -- 76
2019-10-02 23:00:00 14.1 38 Oeste 60 Noroeste 0 -- -- 74
2019-10-02 22:00:00 14.8 50 Noroeste 66 Noroeste 0 -- -- 70
2019-10-02 21:00:00 15.7 32 Oeste 60 Oeste 0 -- -- 65
2019-10-02 20:00:00 16.6 35 Oeste 60 Noroeste 0 -- -- 60
2019-10-02 19:00:00 17.9 41 Oeste 68 Oeste 0 -- -- 54
2019-10-02 18:00:00 18.2 40 Oeste 63 Noroeste 0 -- -- 53
2019-10-02 17:00:00 19.9 42 Oeste 62 Oeste 0 -- -- 49
2019-10-02 16:00:00 20.5 38 Noroeste 57 Noroeste 0 -- -- 46
2019-10-02 15:00:00 20.7 37 Oeste 59 Oeste 0 -- -- 46
2019-10-02 14:00:00 20.4 44 Oeste 66 Oeste 0 -- -- 47
2019-10-02 13:00:00 19.6 42 Noroeste 62 Oeste 0 -- -- 49
2019-10-02 12:00:00 19.1 39 Noroeste 55 Noroeste 0 -- -- 48
2019-10-02 11:00:00 17.9 30 Noroeste 46 Oeste 0 -- -- 52
2019-10-02 10:00:00 16.4 17 Oeste 44 Oeste 0 -- -- 62
2019-10-02 09:00:00 14.2 18 Oeste 28 Oeste 0 -- -- 75
2019-10-02 08:00:00 13.7 19 Oeste 31 Oeste 0 -- -- 75
2019-10-02 07:00:00 13.3 9 Oeste 20 Oeste 0 -- -- 78
2019-10-02 06:00:00 14.2 11 Oeste 21 Oeste 0 -- -- 78
2019-10-02 05:00:00 15.3 13 Oeste 21 Oeste 0 -- -- 75
2019-10-02 04:00:00 15.4 14 Oeste 22 Oeste 0 -- -- 75
2019-10-02 03:00:00 15 17 Oeste 33 Oeste 0 -- -- 76
2019-10-02 02:00:00 15.4 24 Oeste 35 Oeste 0 -- -- 75
2019-10-02 01:00:00 16 18 Oeste 30 Oeste 0 -- -- 72
2019-10-02 00:00:00 16.9 17 Oeste 32 Oeste 0 -- -- 69
2019-10-01 23:00:00 18.5 20 Oeste 32 Noroeste 0 -- -- 63
2019-10-01 22:00:00 19.9 15 Oeste 26 Noroeste 0 -- -- 56
2019-10-01 21:00:00 20.9 11 Oeste 23 Noroeste 0 -- -- 54
2019-10-01 20:00:00 22.8 18 Noroeste 31 Noroeste 0 -- -- 49
2019-10-01 19:00:00 24.9 20 Noroeste 30 Noroeste 0 -- -- 42
2019-10-01 18:00:00 26.5 18 Noroeste 30 Noroeste 0 -- -- 41
2019-10-01 17:00:00 27.4 20 Noroeste 33 Noroeste 0 -- -- 36
2019-10-01 16:00:00 27 15 Noroeste 34 Noroeste 0 -- -- 36
2019-10-01 15:00:00 28.6 17 Oeste 31 Oeste 0 -- -- 31
2019-10-01 14:00:00 28 20 Oeste 35 Oeste 0 -- -- 29
2019-10-01 13:00:00 28 21 Oeste 33 Oeste 0 -- -- 27
2019-10-01 12:00:00 26.3 22 Oeste 37 Oeste 0 -- -- 26
2019-10-01 11:00:00 25.1 22 Oeste 32 Oeste 0 -- -- 26
2019-10-01 10:00:00 22.7 5 Norte 10 Norte 0 -- -- 32
2019-10-01 09:00:00 18.3 5 Este 12 Sudoeste 0 -- -- 40
2019-10-01 08:00:00 14.2 8 Sudeste 13 Sudeste 0 -- -- 52
2019-10-01 07:00:00 14.4 9 Sudeste 14 Sudeste 0 -- -- 51
2019-10-01 06:00:00 15.1 3 Sudoeste 5 Sur 0 -- -- 46
2019-10-01 05:00:00 17.8 3 Nordeste 10 Este 0 -- -- 39
2019-10-01 04:00:00 17 2 Sudeste 16 Sudoeste 0 -- -- 41
2019-10-01 03:00:00 22.2 14 Sudoeste 18 Sudoeste 0 -- -- 30
2019-10-01 02:00:00 18.9 8 Sudeste 12 Sudeste 0 -- -- 43
2019-10-01 01:00:00 20.3 3 Sudeste 9 Sudeste 0 -- -- 42
2019-10-01 00:00:00 21.5 4 Sudeste 14 Sur 0 -- -- 37
2019-09-30 23:00:00 23 8 Sur 17 Sur 0 -- -- 35
2019-09-30 22:00:00 22.5 9 Sur 13 Sudoeste 0 -- -- 37
2019-09-30 21:00:00 23 8 Sudeste 11 Sudeste 0 -- -- 36
2019-09-30 20:00:00 24.4 7 Sur 15 Sudeste 0 -- -- 33
2019-09-30 19:00:00 27.3 9 Este 23 Este 0 -- -- 29
2019-09-30 18:00:00 28.3 10 Este 19 Nordeste 0 -- -- 30
2019-09-30 17:00:00 29.7 5 Nordeste 16 Nordeste 0 -- -- 30
2019-09-30 16:00:00 29.4 6 Nordeste 18 Norte 0 -- -- 31
2019-09-30 15:00:00 28.9 6 Norte 17 Nordeste 0 -- -- 32
2019-09-30 14:00:00 28.6 8 Nordeste 20 Este 0 -- -- 33
2019-09-30 13:00:00 28.2 7 Noroeste 17 Oeste 0 -- -- 32
2019-09-30 12:00:00 26.3 5 Nordeste 12 Sur 0 -- -- 35
2019-09-30 11:00:00 24.1 4 Noroeste 12 Noroeste 0 -- -- 37
2019-09-30 10:00:00 20.5 7 Noroeste -- -- -- -- -- 49
2019-09-30 09:00:00 17.9 3 Este 15 Sudoeste 0 -- -- 56
2019-09-30 08:00:00 17.3 5 Sudoeste 15 Oeste 0 -- -- 59
2019-09-30 07:00:00 17.5 6 Oeste 18 Oeste 0 -- -- 56
2019-09-30 06:00:00 18.5 8 Oeste 21 Sudoeste 0 -- -- 52
2019-09-30 05:00:00 17.9 5 Oeste 26 Sudoeste 0 -- -- 51
2019-09-30 04:00:00 18.5 6 Sudeste 26 Sudoeste 0 -- -- 48
2019-09-30 03:00:00 20.3 8 Sudoeste 22 Oeste 0 -- -- 36
2019-09-30 02:00:00 19.3 5 Sudeste 15 Oeste 0 -- -- 42
2019-09-30 01:00:00 19.5 5 Sudoeste 15 Este 0 -- -- 43
2019-09-30 00:00:00 19.5 8 Sudeste 10 Sudeste 0 -- -- 47
2019-09-29 23:00:00 20.6 5 Sudeste 12 Sudeste 0 -- -- 46
2019-09-29 22:00:00 19.3 9 Sudeste 13 Sudeste 0 -- -- 50
2019-09-29 21:00:00 20.6 5 Sudeste 12 Sudeste 0 -- -- 44
2019-09-29 20:00:00 22.8 3 Sur 12 Norte 0 -- -- 38
2019-09-29 19:00:00 29 8 Norte 17 Norte 0 -- -- 28
2019-09-29 18:00:00 30.3 13 Norte 31 Noroeste 0 -- -- 28
2019-09-29 17:00:00 31.2 14 Oeste 28 Sur 0 -- -- 18
2019-09-29 16:00:00 31.5 16 Oeste 32 Oeste 0 -- -- 16
2019-09-29 15:00:00 30.6 12 Oeste 32 Oeste 0 -- -- 19
2019-09-29 14:00:00 29.8 12 Sudoeste 24 Oeste 0 -- -- 22
2019-09-29 13:00:00 26.4 6 Norte 18 Norte 0 -- -- 42
2019-09-29 12:00:00 22.9 11 Norte 18 Norte 0 -- -- 56
2019-09-29 11:00:00 24 5 Norte 11 Oeste 0 -- -- 49
2019-09-29 10:00:00 20.3 3 Nordeste 8 Norte 0 -- -- 59
2019-09-29 09:00:00 15.2 2 Este 10 Sudeste 0 -- -- 65
2019-09-29 08:00:00 12.5 0 Calma 12 Este 0 -- -- 78
2019-09-29 07:00:00 12.4 7 Sudeste 14 Sudeste 0 -- -- 77
2019-09-29 06:00:00 12.1 0 Calma 10 Sudeste 0 -- -- 80
2019-09-29 05:00:00 13.8 4 Sudeste 12 Sudeste 0 -- -- 84
2019-09-29 04:00:00 14.2 6 Sudeste 11 Sudeste 0 -- -- 83
2019-09-29 03:00:00 16.3 7 Este 13 Sudeste 0 -- -- 83
2019-09-29 02:00:00 15.1 3 Oeste 10 Sudeste 0 -- -- 86
2019-09-29 01:00:00 17.1 6 Sudeste 9 Sur 0 -- -- 83
2019-09-29 00:00:00 18.4 6 Sur 9 Sur 0 -- -- 80
2019-09-28 23:00:00 20.5 8 Sudeste 13 Sudeste 0 -- -- 69
2019-09-28 22:00:00 21.5 6 Sudeste 15 Sudeste 0 -- -- 67
2019-09-28 21:00:00 21.3 6 Sudoeste 8 Sudoeste 0 -- -- 45
2019-09-28 20:00:00 22.8 3 Sudeste 15 Este 0 -- -- 42
2019-09-28 19:00:00 25.4 10 Este 19 Este 0 -- -- 37
2019-09-28 18:00:00 25.6 13 Sudeste 23 Sudeste 0 -- -- 37
2019-09-28 17:00:00 26.3 12 Este 25 Este 0 -- -- 37
2019-09-28 16:00:00 25.9 14 Este 22 Este 0 -- -- 37
2019-09-28 15:00:00 25.3 10 Este 21 Norte 0 -- -- 41
2019-09-28 14:00:00 25.3 8 Norte 16 Noroeste 0 -- -- 44
2019-09-28 13:00:00 24.5 3 Nordeste 10 Noroeste 0 -- -- 45
2019-09-28 12:00:00 22.6 6 Nordeste 12 Norte 0 -- -- 51
2019-09-28 11:00:00 20.6 8 Oeste 15 Oeste 0 -- -- 58
2019-09-28 10:00:00 18.2 8 Oeste 15 Oeste 0 -- -- 68
2019-09-28 09:00:00 16 3 Sudeste 14 Sudeste 0 -- -- 77
2019-09-28 08:00:00 15.1 5 Oeste 15 Sur 0 -- -- 80
2019-09-28 07:00:00 15.1 5 Sudoeste 21 Oeste 0 -- -- 80
2019-09-28 06:00:00 14.9 5 Oeste 20 Oeste 0 -- -- 79
2019-09-28 05:00:00 15.7 5 Sur 21 Sudoeste 0 -- -- 75
2019-09-28 04:00:00 15.7 3 Sudoeste 26 Oeste 0 -- -- 75
2019-09-28 03:00:00 16.4 19 Oeste 25 Oeste 0 -- -- 71
2019-09-28 02:00:00 18.2 5 Oeste 14 Sudoeste 0 -- -- 56
2019-09-28 01:00:00 18.9 5 Norte 13 Oeste 0 -- -- 44
2019-09-28 00:00:00 18.9 6 Sudeste 14 Sudeste 0 -- -- 45
2019-09-27 23:00:00 18 7 Sudeste 13 Sudeste 0 -- -- 48
2019-09-27 22:00:00 19.5 8 Sudeste 12 Sudeste 0 -- -- 44
2019-09-27 21:00:00 20.2 5 Sur 9 Sudoeste 0 -- -- 40
2019-09-27 20:00:00 22.5 6 Oeste 18 Noroeste 0 -- -- 35
2019-09-27 19:00:00 26.7 15 Noroeste 21 Noroeste 0 -- -- 28
2019-09-27 18:00:00 28.4 14 Noroeste 21 Noroeste 0 -- -- 26
2019-09-27 17:00:00 29.9 8 Oeste 24 Oeste 0 -- -- 25
2019-09-27 16:00:00 29.2 13 Oeste 32 Oeste 0 -- -- 25
2019-09-27 15:00:00 29 15 Noroeste 24 Noroeste 0 -- -- 22
2019-09-27 14:00:00 27.1 16 Oeste 30 Oeste 0 -- -- 27
2019-09-27 13:00:00 26.2 18 Oeste 26 Noroeste 0 -- -- 30
2019-09-27 12:00:00 25.4 10 Oeste 20 Norte 0 -- -- 34
2019-09-27 11:00:00 23.7 6 Nordeste 12 Norte 0 -- -- 39
2019-09-27 10:00:00 22.6 5 Norte 9 Norte 0 -- -- 42
2019-09-27 09:00:00 17.8 6 Sudeste 12 Oeste 0 -- -- 53
2019-09-27 08:00:00 14.4 5 Sur 13 Sudeste 0 -- -- 64
2019-09-27 07:00:00 13.9 4 Sudeste 12 Sudeste 0 -- -- 65
2019-09-27 06:00:00 14.9 7 Sudeste 12 Sudeste 0 -- -- 62
2019-09-27 05:00:00 15.9 4 Este 9 Sudeste 0 -- -- 59
2019-09-27 04:00:00 16.7 0 Calma 11 Sudoeste 0 -- -- 57
2019-09-27 03:00:00 19.4 3 Sudoeste 13 Sur 0 -- -- 49
2019-09-27 02:00:00 20.5 6 Sudoeste 14 Sudoeste 0 -- -- 46
2019-09-27 01:00:00 17.3 9 Sudeste 12 Sudeste 0 -- -- 52
2019-09-27 00:00:00 18.2 8 Sudeste 10 Sudeste 0 -- -- 50
2019-09-26 23:00:00 19.5 3 Sudoeste 13 Sur 0 -- -- 46
2019-09-26 22:00:00 23.2 10 Sudoeste 16 Sudoeste 0 -- -- 38
2019-09-26 21:00:00 22.5 5 Sur 12 Sur 0 -- -- 39
2019-09-26 20:00:00 24.2 6 Sudeste 18 Este 0 -- -- 36
2019-09-26 19:00:00 26.3 10 Este 21 Este 0 -- -- 33
2019-09-26 18:00:00 26.7 15 Este 24 Este 0 -- -- 33
2019-09-26 17:00:00 27.6 11 Este 21 Nordeste 0 -- -- 31
2019-09-26 16:00:00 28.5 8 Norte 22 Norte 0 -- -- 30
2019-09-26 15:00:00 27.7 11 Nordeste 21 Norte 0 -- -- 31
2019-09-26 14:00:00 27.4 6 Nordeste 27 Norte 0 -- -- 33
2019-09-26 13:00:00 25.9 8 Sudeste -- -- -- -- -- 35
2019-09-26 12:00:00 24.9 7 Oeste 15 Noroeste 0 -- -- 36
2019-09-26 11:00:00 23.6 8 Sudoeste 17 Sudoeste 0 -- -- 39
2019-09-26 10:00:00 20.5 13 Sudoeste 23 Sudoeste 0 -- -- 45
2019-09-26 09:00:00 18.3 15 Sudoeste 32 Sudoeste 0 -- -- 51
2019-09-26 08:00:00 16.1 6 Sur 23 Sudoeste 0 -- -- 58
2019-09-26 07:00:00 16.8 13 Sudoeste 25 Sudoeste 0 -- -- 56
2019-09-26 06:00:00 16.2 9 Sudoeste 17 Oeste 0 -- -- 59
2019-09-26 05:00:00 14.9 5 Sudeste 15 Sudoeste 0 -- -- 65
2019-09-26 04:00:00 15.6 4 Noroeste 19 Oeste 0 -- -- 63
2019-09-26 03:00:00 15.7 14 Oeste 21 Oeste 0 -- -- 63
2019-09-26 02:00:00 15.3 9 Oeste 14 Sudoeste 0 -- -- 65
2019-09-26 01:00:00 14.6 5 Sudeste 9 Sudeste 0 -- -- 66
2019-09-26 00:00:00 14.8 4 Sur 9 Sudoeste 0 -- -- 63
2019-09-25 23:00:00 15.5 3 Sudoeste 8 Sudeste 0 -- -- 59
2019-09-25 22:00:00 16.2 5 Sudeste 14 Oeste 0 -- -- 55
2019-09-25 21:00:00 17.6 11 Oeste 14 Oeste 0 -- -- 52
2019-09-25 20:00:00 19.3 12 Oeste 21 Oeste 0 -- -- 47
2019-09-25 19:00:00 20.8 15 Noroeste 26 Noroeste 0 -- -- 44
2019-09-25 18:00:00 22 19 Noroeste 32 Oeste 0 -- -- 41
2019-09-25 17:00:00 23.1 22 Noroeste 39 Noroeste 0 -- -- 39
2019-09-25 16:00:00 23.3 25 Noroeste 39 Noroeste 0 -- -- 39
2019-09-25 15:00:00 22.9 19 Oeste 35 Noroeste 0 -- -- 42
2019-09-25 14:00:00 21.5 24 Oeste 44 Oeste 0 -- -- 45
2019-09-25 13:00:00 20.7 25 Oeste 37 Oeste 0 -- -- 47
2019-09-25 12:00:00 20 22 Noroeste 33 Noroeste 0 -- -- 50
2019-09-25 11:00:00 18.3 21 Oeste 31 Oeste 0 -- -- 55
2019-09-25 10:00:00 16.9 23 Oeste 31 Oeste 0 -- -- 61
2019-09-25 09:00:00 15.4 14 Oeste 22 Noroeste 0 -- -- 71
2019-09-25 08:00:00 14.5 16 Oeste 28 Noroeste 0 -- -- 75
2019-09-25 07:00:00 14.1 11 Oeste 22 Oeste 0 -- -- 79
2019-09-25 06:00:00 15 12 Oeste 22 Oeste 0 -- -- 76
2019-09-25 05:00:00 15.9 14 Oeste 32 Oeste 0 -- -- 72
2019-09-25 04:00:00 16.5 17 Oeste 30 Oeste 0 -- -- 72
2019-09-25 03:00:00 18.4 17 Oeste 29 Oeste 0 -- -- 69
2019-09-25 02:00:00 20.5 22 Oeste 36 Sudoeste 0 -- -- 63
2019-09-25 01:00:00 20.9 13 Sudoeste 21 Sudoeste 0 -- -- 61
2019-09-25 00:00:00 20.9 9 Sudoeste 19 Sudoeste 0 -- -- 59
2019-09-24 23:00:00 21.2 10 Oeste 16 Oeste 0 -- -- 58
2019-09-24 22:00:00 22.8 12 Oeste 26 Noroeste 0 -- -- 53
2019-09-24 21:00:00 21.6 6 Noroeste 23 Noroeste 0 -- -- 55
2019-09-24 20:00:00 23.9 18 Noroeste 29 Oeste 0 -- -- 48
2019-09-24 19:00:00 27 22 Oeste 34 Oeste 0 -- -- 40
2019-09-24 18:00:00 28.1 22 Oeste 44 Noroeste 0 -- -- 37
2019-09-24 17:00:00 28.6 23 Oeste 44 Sudoeste 0 -- -- 32
2019-09-24 16:00:00 28.5 24 Oeste 44 Oeste 0 -- -- 31
2019-09-24 15:00:00 28 25 Oeste 47 Noroeste 0 -- -- 29
2019-09-24 14:00:00 27.2 30 Oeste 54 Noroeste 0 -- -- 28
2019-09-24 13:00:00 26.4 23 Oeste 46 Sudoeste 0 -- -- 30
2019-09-24 12:00:00 24.3 23 Oeste 46 Oeste 0 -- -- 36
2019-09-24 11:00:00 22.9 28 Oeste 53 Oeste 0 -- -- 41
2019-09-24 10:00:00 21.2 18 Oeste 28 Sudoeste 0 -- -- 43
2019-09-24 09:00:00 20.1 2 Norte 15 Oeste 0 -- -- 46
2019-09-24 08:00:00 15.6 8 Sudeste 13 Sudeste 0 -- -- 57
2019-09-24 07:00:00 15.7 4 Sudeste 11 Sudeste 0 -- -- 57
2019-09-24 06:00:00 17.2 6 Oeste 16 Sur 0 -- -- 53
2019-09-24 05:00:00 18.9 4 Sudeste 37 Sudoeste 0 -- -- 49
2019-09-24 04:00:00 19.3 6 Sudeste 36 Sudoeste 0 -- -- 49
2019-09-24 03:00:00 18.8 5 Este 13 Sudeste 0 -- -- 51
2019-09-24 02:00:00 18.4 7 Sur 17 Sudoeste 0 -- -- 52
2019-09-24 01:00:00 19.2 7 Sudoeste 15 Sudoeste 0 -- -- 49
2019-09-24 00:00:00 19.2 8 Sudoeste 13 Sudoeste 0 -- -- 48
2019-09-23 23:00:00 18.9 9 Sur 13 Sur 0 -- -- 45
2019-09-23 22:00:00 17.1 3 Sur 10 Sudeste 0 -- -- 50
2019-09-23 21:00:00 18.1 7 Sudeste 12 Sudeste 0 -- -- 47
2019-09-23 20:00:00 20.9 0 Calma 17 Oeste 0 -- -- 40
2019-09-23 19:00:00 23.4 12 Oeste 28 Oeste 0 -- -- 35
2019-09-23 18:00:00 24.6 15 Oeste 30 Oeste 0 -- -- 31
2019-09-23 17:00:00 24.4 15 Oeste 29 Noroeste 0 -- -- 32
2019-09-23 16:00:00 24.9 10 Oeste 26 Sudoeste 0 -- -- 32
2019-09-23 15:00:00 24.5 11 Oeste 27 Oeste 0 -- -- 32
2019-09-23 14:00:00 23.8 13 Sudoeste 27 Oeste 0 -- -- 33
2019-09-23 13:00:00 23.2 17 Oeste 29 Oeste 0 -- -- 35
2019-09-23 12:00:00 22.5 11 Oeste 25 Sudoeste 0 -- -- 34
2019-09-23 11:00:00 20.4 13 Sudoeste 25 Sudoeste 0 -- -- 42
2019-09-23 10:00:00 18.6 15 Sudoeste 24 Sudoeste 0 -- -- 50
2019-09-23 09:00:00 16.3 17 Sudoeste 24 Sudoeste 0 -- -- 57
2019-09-23 08:00:00 13.2 5 Sur 12 Sudoeste 0 -- -- 68
2019-09-23 07:00:00 13.7 5 Nordeste 16 Sudoeste 0 -- -- 65
2019-09-23 06:00:00 13.6 6 Sudeste 15 Oeste 0 -- -- 67
2019-09-23 05:00:00 14.3 11 Oeste 17 Oeste 0 -- -- 67
2019-09-23 04:00:00 14.7 4 Sur 19 Sudoeste 0 -- -- 63
2019-09-23 03:00:00 15.5 8 Sudoeste 18 Sudoeste 0 -- -- 60
2019-09-23 02:00:00 13.7 6 Sudeste 13 Oeste 0 -- -- 69
2019-09-23 01:00:00 14.7 5 Oeste 12 Sudoeste 0 -- -- 65
2019-09-23 00:00:00 16.8 9 Sudoeste 15 Oeste 0 -- -- 53
2019-09-22 23:00:00 16.4 13 Oeste 17 Oeste 0 -- -- 56
2019-09-22 22:00:00 14.8 9 Oeste 12 Oeste 0 -- -- 64
2019-09-22 21:00:00 16.4 8 Oeste 19 Noroeste 0 -- -- 60
2019-09-22 20:00:00 19.7 15 Noroeste 26 Noroeste 0 -- -- 52
2019-09-22 19:00:00 22.4 22 Noroeste 37 Oeste 0 -- -- 48
2019-09-22 18:00:00 23.9 21 Oeste 45 Oeste 0 -- -- 42
2019-09-22 17:00:00 24 22 Oeste 45 Oeste 0 -- -- 44
2019-09-22 16:00:00 23.6 27 Oeste 49 Sudoeste 0 -- -- 44
2019-09-22 15:00:00 22.6 26 Oeste 47 Noroeste 0 -- -- 50
2019-09-22 14:00:00 22.5 26 Sudoeste 41 Sudoeste 0 -- -- 52
2019-09-22 13:00:00 22.2 18 Oeste 37 Oeste 0 -- -- 56
2019-09-22 12:00:00 20.5 27 Oeste 40 Oeste 0 -- -- 66
2019-09-22 11:00:00 22.4 13 Sudoeste 30 Sudoeste 0 -- -- 55
2019-09-22 10:00:00 21.5 18 Sudoeste 36 Sudoeste 0 -- -- 58
2019-09-22 09:00:00 21 13 Sudoeste 28 Sur 0 -- -- 60
2019-09-22 08:00:00 19.4 8 Sudoeste 15 Sur 0 -- -- 64
2019-09-22 07:00:00 19 6 Sur 11 Sur 0 -- -- 71
2019-09-22 06:00:00 18.7 6 Sur 11 Sudeste 0 -- -- 78
2019-09-22 05:00:00 20.1 6 Sur 12 Sur 0 -- -- 64
2019-09-22 04:00:00 18.8 3 Sur 6 Oeste 0 -- -- 73
2019-09-22 03:00:00 20.1 3 Nordeste 10 Sur 0 -- -- 70
2019-09-22 02:00:00 20.2 2 Sudeste 11 Este 0 -- -- 72
2019-09-22 01:00:00 19.3 6 Sudeste 9 Sudeste 0 -- -- 66
2019-09-22 00:00:00 19.3 2 Oeste 7 Sur 0 -- -- 67
2019-09-21 23:00:00 21.3 5 Sur 17 Oeste 0 -- -- 59
2019-09-21 22:00:00 22.2 13 Oeste 21 Sudoeste 0 -- -- 55
2019-09-21 21:00:00 23.1 5 Sur 18 Sur 0 -- -- 51
2019-09-21 20:00:00 24.4 10 Sudeste 19 Sudeste 0 -- -- 46
2019-09-21 19:00:00 24.9 15 Este 24 Este 0 -- -- 45
2019-09-21 18:00:00 25.7 14 Sudeste 23 Este 0 -- -- 43
2019-09-21 17:00:00 26.1 12 Este 21 Este 0 -- -- 44
2019-09-21 16:00:00 25.6 11 Este 22 Este 0 -- -- 45
2019-09-21 15:00:00 24.9 10 Sur 26 Sudeste 0 -- -- 47
2019-09-21 14:00:00 24.2 9 Este 23 Este 0 -- -- 52
2019-09-21 13:00:00 22.9 15 Este 24 Este 0 -- -- 57
2019-09-21 12:00:00 22.2 14 Este 22 Este 0 -- -- 60
2019-09-21 11:00:00 21.5 4 Este 12 Este 0 -- -- 59
2019-09-21 10:00:00 19.2 5 Sudeste 8 Sudeste 0 -- -- 73
2019-09-21 09:00:00 16.1 5 Sudeste 10 Este 0 -- -- 91
2019-09-21 08:00:00 15.9 2 Este 13 Sudeste 0 -- -- 91
2019-09-21 07:00:00 16.8 6 Sudeste 22 Sudeste 0 -- -- 90
2019-09-21 06:00:00 16.7 6 Sudeste 23 Sudeste 0 -- -- 91
2019-09-21 05:00:00 16.8 16 Este 42 Este 0 -- -- 90
2019-09-21 04:00:00 17.2 19 Este 33 Este 0 -- -- 86
2019-09-21 03:00:00 17.9 18 Este 32 Este 0 -- -- 84
2019-09-21 02:00:00 18 9 Este 28 Este 0 -- -- 82
2019-09-21 01:00:00 18.2 15 Este 26 Sudeste 0 -- -- 77
2019-09-21 00:00:00 18.9 14 Este 38 Este 0 -- -- 72
2019-09-20 23:00:00 19.8 24 Este 36 Este 0 -- -- 71
2019-09-20 22:00:00 21.3 24 Este 42 Este 0 -- -- 65
2019-09-20 21:00:00 22.5 27 Este 48 Este 0 -- -- 59
2019-09-20 20:00:00 23.5 27 Este 45 Este 0 -- -- 56
2019-09-20 19:00:00 23.5 18 Este 44 Este 0 -- -- 61
2019-09-20 18:00:00 25.2 26 Este 46 Este 0 -- -- 53
2019-09-20 17:00:00 26.5 26 Este 54 Este 0 -- -- 49
2019-09-20 16:00:00 26.9 19 Este 37 Este 0 -- -- 49
2019-09-20 15:00:00 25.9 22 Este 40 Este 0 -- -- 52
2019-09-20 14:00:00 26.3 22 Este 37 Nordeste 0 -- -- 50
2019-09-20 13:00:00 23.6 21 Este 32 Este 0 -- -- 61
2019-09-20 12:00:00 21.7 14 Sudeste 26 Este 0 -- -- 68
2019-09-20 11:00:00 20.5 9 Este 23 Este 0 -- -- 73
2019-09-20 10:00:00 18.2 7 Sudeste 18 Este 0 -- -- 83
2019-09-20 09:00:00 17.1 9 Este 15 Sudeste 0 -- -- 88
2019-09-20 08:00:00 16.1 0 Calma 9 Sudeste 0 -- -- 93
2019-09-20 07:00:00 16.3 5 Sudeste 10 Sudeste 0 -- -- 89
2019-09-20 06:00:00 16.2 5 Sur 10 Sudoeste 0 -- -- 89
2019-09-20 05:00:00 16.6 0 Calma 9 Este 0 -- -- 85
2019-09-20 04:00:00 17.6 0 Calma 9 Este 0 -- -- 78
2019-09-20 03:00:00 19.2 6 Nordeste 11 Sur 0 -- -- 73
2019-09-20 02:00:00 19.5 6 Sudoeste 13 Sudoeste 0 -- -- 69
2019-09-20 01:00:00 20.9 3 Norte 15 Este 0 -- -- 62
2019-09-20 00:00:00 21.8 6 Noroeste 25 Sudoeste 0 -- -- 56
2019-09-19 23:00:00 23.8 14 Sur 22 Sudoeste 0 -- -- 44
2019-09-19 22:00:00 22.9 6 Sudeste 21 Sur 0 -- -- 46
2019-09-19 21:00:00 23.4 10 Sur 22 Sur 0 -- -- 47
2019-09-19 20:00:00 25.2 8 Sudeste 14 Este 0 -- -- 44
2019-09-19 19:00:00 26.7 7 Este 16 Este 0 -- -- 39
2019-09-19 18:00:00 28.7 9 Norte 18 Norte 0 -- -- 36
2019-09-19 17:00:00 28.1 8 Norte 20 Norte 0 -- -- 40
2019-09-19 16:00:00 27.5 9 Norte 21 Norte 0 -- -- 43
2019-09-19 15:00:00 27.4 10 Norte 17 Norte 0 -- -- 44
2019-09-19 14:00:00 26.2 8 Noroeste 18 Norte 0 -- -- 48
2019-09-19 13:00:00 25.8 9 Nordeste 19 Nordeste 0 -- -- 49
2019-09-19 12:00:00 24.4 4 Oeste 10 Sudoeste 0 -- -- 53
2019-09-19 11:00:00 22.6 4 Oeste 15 Oeste 0 -- -- 60
2019-09-19 10:00:00 19.9 9 Oeste 19 Oeste 0 -- -- 70
2019-09-19 09:00:00 18.1 3 Sudeste 10 Sudeste 0 -- -- 78
2019-09-19 08:00:00 16.2 4 Sur 10 Sudeste 0 -- -- 86
2019-09-19 07:00:00 16.3 4 Este 14 Sur 0 -- -- 85
2019-09-19 06:00:00 17.1 5 Sur 10 Sudoeste 0 -- -- 81
2019-09-19 05:00:00 17.6 5 Este 19 Oeste 0 -- -- 81
2019-09-19 04:00:00 17.9 3 Sudeste 14 Oeste 0 -- -- 80
2019-09-19 03:00:00 18.4 10 Oeste 18 Oeste 0 -- -- 79
2019-09-19 02:00:00 19.5 9 Oeste 15 Sudoeste 0 -- -- 72
2019-09-19 01:00:00 20.1 3 Nordeste 12 Sudoeste 0 -- -- 61
2019-09-19 00:00:00 20.9 5 Sudoeste 18 Oeste 0 -- -- 59
2019-09-18 23:00:00 20.8 3 Noroeste 12 Oeste 0 -- -- 58
2019-09-18 22:00:00 20.4 0 Calma 10 Oeste 0 -- -- 52
2019-09-18 21:00:00 21.9 6 Norte 12 Norte 0 -- -- 48
2019-09-18 20:00:00 23.6 5 Sudeste 18 Este 0 -- -- 43
2019-09-18 19:00:00 25.3 16 Este 26 Este 0 -- -- 41
2019-09-18 18:00:00 27.1 8 Sudoeste 16 Oeste 0 -- -- 34
2019-09-18 17:00:00 25.9 7 Sudoeste 33 Oeste 0 -- -- 39
2019-09-18 16:00:00 26.8 13 Sudoeste 33 Oeste 0 -- -- 38
2019-09-18 15:00:00 26.8 11 Oeste 19 Oeste 0 -- -- 38
2019-09-18 14:00:00 26.1 8 Oeste 22 Oeste 0 -- -- 42
2019-09-18 13:00:00 26.1 8 Oeste 16 Oeste 0 -- -- 42
2019-09-18 12:00:00 23.5 10 Noroeste 20 Oeste 0 -- -- 51
2019-09-18 11:00:00 23 10 Oeste 23 Oeste 0 -- -- 52
2019-09-18 10:00:00 20.9 16 Oeste 28 Sudoeste 0 -- -- 60
2019-09-18 09:00:00 18.7 21 Oeste 30 Sudoeste 0 -- -- 69
2019-09-18 08:00:00 17.5 23 Sudoeste 31 Oeste 0 -- -- 74
2019-09-18 07:00:00 16 7 Sudeste 13 Sudeste 0 -- -- 71
2019-09-18 06:00:00 16.7 6 Sudeste 12 Sudeste 0 -- -- 67
2019-09-18 05:00:00 17.3 6 Sudeste 11 Sudeste 0 -- -- 65
2019-09-18 04:00:00 18.9 6 Este 18 Sudoeste 0 -- -- 60
2019-09-18 03:00:00 20.3 12 Sudoeste 30 Oeste 0 -- -- 55
2019-09-18 02:00:00 21.4 27 Oeste 41 Oeste 0 -- -- 49
2019-09-18 01:00:00 22 24 Oeste 40 Sudoeste 0 -- -- 46
2019-09-18 00:00:00 22.5 25 Sudoeste 53 Sur 0 -- -- 44
2019-09-17 23:00:00 23.3 15 Sur 33 Sur 0 -- -- 44
2019-09-17 22:00:00 21 6 Sudeste 14 Sudeste 0 -- -- 50
2019-09-17 21:00:00 23.3 5 Sur 7 Sur 0 -- -- 45